Time;durP1;ratioP1;P1;durP2;ratioP2;P2;SDS_P1;SDS_P2;PMS_P1;PMS_P2;Temp;Humidity;BMP_temperature;BMP_pressure;BME280_temperature;BME280_humidity;BME280_pressure;Samples;Min_cycle;Max_cycle;Signal;HPM_P1;HPM_P2
2023/07/21 00:01:05;;;;;;;;;;;;;;;16.19;80.46;101171.03;5049280;28;1308;-76
2023/07/21 00:03:30;;;;;;;;;;;;;;;16.16;81.13;101181.78;5048645;28;1249;-77
2023/07/21 00:05:56;;;;;;;;;;;;;;;16.12;81.23;101175.25;5033494;28;1300;-77
2023/07/21 00:08:22;;;;;;;;;;;;;;;16.05;81.57;101174.19;5028410;28;1244;-77
2023/07/21 00:10:47;;;;;;;;;;;;;;;16.03;81.47;101176.16;5052022;28;1902;-77
2023/07/21 00:13:12;;;;;;;;;;;;;;;16.05;81.78;101168.97;5045095;28;1236;-77
2023/07/21 00:15:38;;;;;;;;;;;;;;;16.06;81.86;101175.84;5049993;28;1967;-76
2023/07/21 00:18:03;;;;;;;;;;;;;;;16.01;81.95;101172.88;5042107;28;1016;-77
2023/07/21 00:20:29;;;;;;;;;;;;;;;15.98;82.01;101167.94;5031899;28;1545;-76
2023/07/21 00:22:54;;;;;;;;;;;;;;;15.95;81.62;101169.06;5050105;28;1104;-77
2023/07/21 00:25:19;;;;;;;;;;;;;;;15.95;81.91;101176.09;5049084;28;1079;-76
2023/07/21 00:27:44;;;;;;;;;;;;;;;15.89;81.90;101167.88;5046316;28;1117;-77
2023/07/21 00:30:10;;;;;;;;;;;;;;;15.85;81.85;101163.91;5043978;28;1286;-76
2023/07/21 00:32:35;;;;;;;;;;;;;;;15.84;82.24;101162.28;5042235;28;1898;-77
2023/07/21 00:35:02;;;;;;;;;;;;;;;15.81;82.29;101173.03;5044758;28;1051;-76
2023/07/21 00:37:28;;;;;;;;;;;;;;;15.77;82.47;101169.09;5045655;28;1132;-77
2023/07/21 00:39:53;;;;;;;;;;;;;;;15.75;82.46;101163.16;5048252;28;1158;-77
2023/07/21 00:42:19;;;;;;;;;;;;;;;15.73;82.36;101159.06;5042465;28;1094;-76
2023/07/21 00:44:44;;;;;;;;;;;;;;;15.71;82.46;101167.03;5041658;28;1102;-76
2023/07/21 00:47:10;;;;;;;;;;;;;;;15.71;82.45;101161.81;5042821;28;1358;-77
2023/07/21 00:49:36;;;;;;;;;;;;;;;15.69;82.80;101158.53;5049881;28;1005;-76
2023/07/21 00:52:01;;;;;;;;;;;;;;;15.67;82.89;101152.66;5056400;28;1955;-78
2023/07/21 00:54:27;;;;;;;;;;;;;;;15.68;82.95;101156.91;5023374;28;1589;-77
2023/07/21 00:56:53;;;;;;;;;;;;;;;15.68;82.73;101146.44;5044806;28;998;-76
2023/07/21 00:59:18;;;;;;;;;;;;;;;15.67;82.61;101150.03;5053401;28;1075;-77
2023/07/21 01:01:43;;;;;;;;;;;;;;;15.66;82.78;101153.63;5030872;28;1304;-76
2023/07/21 01:04:09;;;;;;;;;;;;;;;15.65;82.32;101151.97;5047617;28;1160;-77
2023/07/21 01:06:37;;;;;;;;;;;;;;;15.65;82.35;101149.34;5045188;28;1503;-76
2023/07/21 01:09:04;;;;;;;;;;;;;;;15.65;82.38;101151.97;5046964;28;1503;-76
2023/07/21 01:11:30;;;;;;;;;;;;;;;15.68;82.81;101145.63;5040406;28;1938;-76
2023/07/21 01:13:56;;;;;;;;;;;;;;;15.68;82.82;101151.66;5054876;28;1241;-76
2023/07/21 01:16:24;;;;;;;;;;;;;;;15.67;82.69;101139.56;5046338;28;1221;-76
2023/07/21 01:18:52;;;;;;;;;;;;;;;15.65;82.95;101141.50;5044239;28;1113;-77
2023/07/21 01:21:22;;;;;;;;;;;;;;;15.64;82.98;101132.03;5046152;28;1240;-77
2023/07/21 01:23:54;;;;;;;;;;;;;;;15.63;82.67;101135.59;5044443;28;1324;-77
2023/07/21 01:26:19;;;;;;;;;;;;;;;15.58;82.56;101136.03;5047712;28;984;-76
2023/07/21 01:28:46;;;;;;;;;;;;;;;15.53;82.50;101132.22;5049525;28;1231;-76
2023/07/21 01:31:13;;;;;;;;;;;;;;;15.49;82.98;101131.72;5039229;28;1894;-76
2023/07/21 01:33:40;;;;;;;;;;;;;;;15.47;82.69;101127.59;5048229;28;1264;-76
2023/07/21 01:36:06;;;;;;;;;;;;;;;15.45;83.09;101121.69;5044140;28;1245;-77
2023/07/21 01:38:32;;;;;;;;;;;;;;;15.43;82.58;101115.81;5040442;28;1082;-76
2023/07/21 01:40:58;;;;;;;;;;;;;;;15.40;82.72;101117.72;5045360;28;1188;-77
2023/07/21 01:43:23;;;;;;;;;;;;;;;15.38;82.62;101119.69;5036653;28;1196;-77
2023/07/21 01:45:49;;;;;;;;;;;;;;;15.37;82.66;101118.03;5045786;28;1101;-77
2023/07/21 01:48:14;;;;;;;;;;;;;;;15.34;82.56;101113.09;5039768;28;1077;-77
2023/07/21 01:50:41;;;;;;;;;;;;;;;15.31;83.05;101108.19;5050072;28;1913;-77
2023/07/21 01:53:08;;;;;;;;;;;;;;;15.27;82.82;101106.84;5047758;28;1013;-76
2023/07/21 01:55:39;;;;;;;;;;;;;;;15.23;82.85;101109.88;5017728;28;1601;-77
2023/07/21 01:58:06;;;;;;;;;;;;;;;15.17;83.14;101106.06;5038386;28;1141;-77
2023/07/21 02:00:35;;;;;;;;;;;;;;;15.14;83.15;101106.38;5043228;28;1109;-76
2023/07/21 02:03:03;;;;;;;;;;;;;;;15.10;83.02;101107.63;5053260;28;1314;-76
2023/07/21 02:05:29;;;;;;;;;;;;;;;15.07;83.34;101105.31;5035415;28;1007;-77
2023/07/21 02:07:54;;;;;;;;;;;;;;;15.05;83.36;101107.25;5045891;28;1177;-76
2023/07/21 02:10:20;;;;;;;;;;;;;;;15.02;83.18;101097.09;5051893;28;1209;-77
2023/07/21 02:12:45;;;;;;;;;;;;;;;14.98;83.41;101100.97;5048160;28;1913;-76
2023/07/21 02:15:10;;;;;;;;;;;;;;;14.95;83.19;101103.88;5051668;28;1507;-76
2023/07/21 02:17:45;;;;;;;;;;;;;;;14.92;83.39;101101.56;5048817;28;1276;-76
2023/07/21 02:20:10;;;;;;;;;;;;;;;14.87;83.60;101100.22;5045389;28;1421;-76
2023/07/21 02:22:36;;;;;;;;;;;;;;;14.84;83.67;101097.88;5048165;28;1164;-76
2023/07/21 02:25:03;;;;;;;;;;;;;;;14.84;83.59;101095.25;5031972;28;1597;-76
2023/07/21 02:27:29;;;;;;;;;;;;;;;14.82;83.99;101094.59;5046703;28;1114;-78
2023/07/21 02:29:55;;;;;;;;;;;;;;;14.81;84.07;101100.78;5047289;28;1102;-77
2023/07/21 02:32:20;;;;;;;;;;;;;;;14.81;83.96;101094.75;5040184;28;1893;-76
2023/07/21 02:34:45;;;;;;;;;;;;;;;14.80;83.83;101088.72;5044675;28;1624;-76
2023/07/21 02:37:10;;;;;;;;;;;;;;;14.74;83.86;101089.31;5036503;28;1238;-76
2023/07/21 02:39:36;;;;;;;;;;;;;;;14.69;84.32;101086.31;5037663;28;1284;-76
2023/07/21 02:42:01;;;;;;;;;;;;;;;14.65;84.18;101087.56;5028526;28;1510;-76
2023/07/21 02:44:27;;;;;;;;;;;;;;;14.62;84.45;101085.22;5042493;28;1248;-76
2023/07/21 02:46:52;;;;;;;;;;;;;;;14.60;84.69;101087.16;5039255;28;1212;-77
2023/07/21 02:49:18;;;;;;;;;;;;;;;14.56;84.62;101085.78;5043946;28;1503;-76
2023/07/21 02:51:43;;;;;;;;;;;;;;;14.55;84.63;101081.53;5024715;28;1953;-76
2023/07/21 02:54:08;;;;;;;;;;;;;;;14.52;84.62;101074.03;5034979;28;1352;-77
2023/07/21 02:56:34;;;;;;;;;;;;;;;14.51;84.98;101077.59;5025530;28;1509;-76
2023/07/21 02:59:00;;;;;;;;;;;;;;;14.52;85.07;101076.63;5045428;28;1078;-77
2023/07/21 03:01:26;;;;;;;;;;;;;;;14.52;85.06;101069.63;5042738;28;1248;-76
2023/07/21 03:03:54;;;;;;;;;;;;;;;14.54;85.06;101066.84;5047172;28;1066;-77
2023/07/21 03:06:19;;;;;;;;;;;;;;;14.54;84.90;101067.69;5042374;28;1260;-76
2023/07/21 03:08:45;;;;;;;;;;;;;;;14.52;85.15;101068.81;5048622;28;1514;-76
2023/07/21 03:11:13;;;;;;;;;;;;;;;14.52;85.46;101068.81;5044321;28;1894;-76
2023/07/21 03:13:38;;;;;;;;;;;;;;;14.51;85.33;101067.16;5048341;28;1208;-78
2023/07/21 03:16:03;;;;;;;;;;;;;;;14.50;85.10;101065.50;5032817;28;1207;-76
2023/07/21 03:18:29;;;;;;;;;;;;;;;14.46;85.35;101066.75;5050166;28;1245;-77
2023/07/21 03:20:58;;;;;;;;;;;;;;;14.44;85.53;101066.03;5039253;28;1577;-76
2023/07/21 03:23:23;;;;;;;;;;;;;;;14.48;85.41;101062.22;5027535;28;1396;-77
2023/07/21 03:25:48;;;;;;;;;;;;;;;14.49;85.45;101069.06;5047148;28;1417;-77
2023/07/21 03:28:14;;;;;;;;;;;;;;;14.43;86.05;101059.19;5050946;28;1435;-76
2023/07/21 03:30:41;;;;;;;;;;;;;;;14.45;85.78;101063.31;5051389;28;1985;-76
2023/07/21 03:33:06;;;;;;;;;;;;;;;14.42;86.07;101062.78;5053305;28;1350;-76
2023/07/21 03:35:31;;;;;;;;;;;;;;;14.39;86.00;101066.47;5048474;28;1709;-77
2023/07/21 03:37:57;;;;;;;;;;;;;;;14.34;85.97;101072.16;5047724;28;1538;-76
2023/07/21 03:40:22;;;;;;;;;;;;;;;14.30;86.13;101070.78;5044913;28;1072;-76
2023/07/21 03:42:48;;;;;;;;;;;;;;;14.31;86.30;101082.84;5032548;28;1320;-77
2023/07/21 03:45:13;;;;;;;;;;;;;;;14.34;86.10;101077.38;5042336;28;1076;-77
2023/07/21 03:47:38;;;;;;;;;;;;;;;14.28;85.93;101080.53;5026537;28;1422;-77
2023/07/21 03:50:04;;;;;;;;;;;;;;;14.22;86.29;101072.44;5028009;28;1181;-77
2023/07/21 03:52:29;;;;;;;;;;;;;;;14.18;86.21;101069.31;5042772;28;1969;-78
2023/07/21 03:54:55;;;;;;;;;;;;;;;14.17;86.43;101070.28;5030312;28;1229;-77
2023/07/21 03:57:20;;;;;;;;;;;;;;;14.15;86.48;101066.97;5046820;28;1103;-77
2023/07/21 03:59:47;;;;;;;;;;;;;;;14.11;86.64;101065.63;5048851;28;1047;-77
2023/07/21 04:02:12;;;;;;;;;;;;;;;14.14;86.83;101057.50;5042921;28;1283;-76
2023/07/21 04:04:37;;;;;;;;;;;;;;;14.14;86.67;101062.72;5046690;28;1344;-76
2023/07/21 04:07:05;;;;;;;;;;;;;;;14.12;86.92;101056.03;5051999;28;1315;-77
2023/07/21 04:09:30;;;;;;;;;;;;;;;14.09;86.84;101062.31;5053509;28;1206;-76
2023/07/21 04:11:55;;;;;;;;;;;;;;;14.12;86.81;101056.84;5044841;28;1906;-76
2023/07/21 04:14:20;;;;;;;;;;;;;;;14.16;87.03;101052.97;5039828;28;1236;-76
2023/07/21 04:16:46;;;;;;;;;;;;;;;14.20;86.67;101058.72;5044312;28;1347;-77
2023/07/21 04:19:11;;;;;;;;;;;;;;;14.16;86.89;101054.75;5045193;28;1248;-77
2023/07/21 04:21:36;;;;;;;;;;;;;;;14.09;86.99;101051.91;5046280;28;1584;-77
2023/07/21 04:24:02;;;;;;;;;;;;;;;14.04;87.02;101049.72;5046471;28;1216;-76
2023/07/21 04:26:28;;;;;;;;;;;;;;;14.04;87.19;101054.09;5036921;28;1208;-76
2023/07/21 04:28:53;;;;;;;;;;;;;;;14.09;86.99;101041.47;5050428;28;1248;-77
2023/07/21 04:31:21;;;;;;;;;;;;;;;14.12;87.01;101041.19;5033567;28;1898;-76
2023/07/21 04:33:47;;;;;;;;;;;;;;;14.10;87.11;101050.94;5038016;28;1178;-78
2023/07/21 04:36:13;;;;;;;;;;;;;;;14.05;87.32;101042.72;5048952;28;1198;-76
2023/07/21 04:38:38;;;;;;;;;;;;;;;14.07;87.35;101043.41;5047864;28;1097;-77
2023/07/21 04:41:04;;;;;;;;;;;;;;;14.13;87.22;101042.84;5049849;28;1323;-76
2023/07/21 04:43:29;;;;;;;;;;;;;;;14.15;87.13;101040.88;5045901;28;1909;-77
2023/07/21 04:45:55;;;;;;;;;;;;;;;14.09;87.68;101042.28;5044230;28;1096;-76
2023/07/21 04:48:20;;;;;;;;;;;;;;;14.07;87.43;101035.59;5045093;28;1511;-76
2023/07/21 04:50:50;;;;;;;;;;;;;;;14.09;87.46;101037.06;5044205;28;1955;-76
2023/07/21 04:53:15;;;;;;;;;;;;;;;14.10;87.50;101037.88;5048303;28;1050;-76
2023/07/21 04:55:41;;;;;;;;;;;;;;;14.08;87.32;101040.66;5024202;28;1389;-76
2023/07/21 04:58:08;;;;;;;;;;;;;;;14.08;87.43;101045.03;5050565;28;1327;-76
2023/07/21 05:00:33;;;;;;;;;;;;;;;14.07;87.56;101048.63;5043711;28;1329;-76
2023/07/21 05:02:59;;;;;;;;;;;;;;;14.10;87.84;101037.88;5047307;28;1252;-76
2023/07/21 05:05:24;;;;;;;;;;;;;;;14.19;87.79;101042.25;5039207;28;1243;-77
2023/07/21 05:07:50;;;;;;;;;;;;;;;14.27;87.63;101050.19;5041834;28;1417;-77
2023/07/21 05:10:15;;;;;;;;;;;;;;;14.34;87.73;101048.66;5045781;28;1499;-77
2023/07/21 05:12:42;;;;;;;;;;;;;;;14.39;87.11;101052.59;5043037;28;2417;-77
2023/07/21 05:15:08;;;;;;;;;;;;;;;14.41;87.82;101051.50;5046883;28;1420;-77
2023/07/21 05:17:34;;;;;;;;;;;;;;;14.42;87.28;101053.16;5040749;28;1283;-76
2023/07/21 05:19:59;;;;;;;;;;;;;;;14.43;87.43;101046.13;5035651;28;1285;-76
2023/07/21 05:22:25;;;;;;;;;;;;;;;14.47;87.71;101050.13;5039683;28;1550;-76
2023/07/21 05:24:51;;;;;;;;;;;;;;;14.46;88.27;101058.91;5046962;28;1273;-76
2023/07/21 05:27:16;;;;;;;;;;;;;;;14.47;88.18;101050.97;5045862;28;1240;-77
2023/07/21 05:29:42;;;;;;;;;;;;;;;14.49;87.67;101053.41;5034672;28;1287;-77
2023/07/21 05:32:07;;;;;;;;;;;;;;;14.53;87.61;101060.00;5050274;28;1894;-77
2023/07/21 05:34:32;;;;;;;;;;;;;;;14.55;87.72;101058.06;5053606;28;1259;-76
2023/07/21 05:36:58;;;;;;;;;;;;;;;14.59;87.65;101059.41;5046211;28;1012;-76
2023/07/21 05:39:23;;;;;;;;;;;;;;;14.59;87.92;101060.25;5046478;28;1413;-77
2023/07/21 05:41:48;;;;;;;;;;;;;;;14.64;88.58;101056.38;5052013;28;1090;-77
2023/07/21 05:44:14;;;;;;;;;;;;;;;14.65;87.98;101052.78;5050139;28;1109;-77
2023/07/21 05:46:40;;;;;;;;;;;;;;;14.64;88.19;101056.38;5045265;28;1013;-77
2023/07/21 05:49:06;;;;;;;;;;;;;;;14.69;88.39;101054.97;5044233;28;1085;-77
2023/07/21 05:51:32;;;;;;;;;;;;;;;14.71;88.46;101053.03;5038826;28;1897;-77
2023/07/21 05:53:57;;;;;;;;;;;;;;;14.76;87.54;101063.03;5048002;28;1075;-77
2023/07/21 05:56:22;;;;;;;;;;;;;;;14.78;88.03;101061.91;5042581;28;1025;-76
2023/07/21 05:58:47;;;;;;;;;;;;;;;14.83;87.12;101057.06;5046573;28;1105;-77
2023/07/21 06:01:12;;;;;;;;;;;;;;;14.94;87.22;101052.63;5042278;28;1170;-76
2023/07/21 06:03:38;;;;;;;;;;;;;;;14.96;86.91;101050.66;5043354;28;1127;-76
2023/07/21 06:06:04;;;;;;;;;;;;;;;15.03;86.54;101051.75;5043273;28;1137;-76
2023/07/21 06:08:30;;;;;;;;;;;;;;;15.08;86.66;101049.47;5044512;28;1245;-77
2023/07/21 06:10:57;;;;;;;;;;;;;;;15.15;86.33;101045.31;5043330;28;1898;-77
2023/07/21 06:13:22;;;;;;;;;;;;;;;15.22;86.12;101046.34;5039996;28;1274;-78
2023/07/21 06:15:48;;;;;;;;;;;;;;;15.27;85.92;101051.97;5047533;28;1201;-77
2023/07/21 06:18:25;;;;;;;;;;;;;;;15.33;85.64;101053.97;5041583;28;1230;-77
2023/07/21 06:20:52;;;;;;;;;;;;;;;15.40;85.21;101055.00;5043637;28;1326;-77
2023/07/21 06:23:17;;;;;;;;;;;;;;;15.47;85.17;101054.38;5030169;28;1320;-77
2023/07/21 06:25:44;;;;;;;;;;;;;;;15.49;84.41;101055.09;5025854;28;1382;-76
2023/07/21 06:28:09;;;;;;;;;;;;;;;15.54;84.17;101055.41;5039008;28;1508;-76
2023/07/21 06:30:35;;;;;;;;;;;;;;;15.60;83.54;101054.84;5027916;28;1177;-77
2023/07/21 06:33:01;;;;;;;;;;;;;;;15.59;83.34;101047.94;5042392;28;1951;-76
2023/07/21 06:35:26;;;;;;;;;;;;;;;15.63;83.30;101049.31;5052819;28;1220;-76
2023/07/21 06:37:51;;;;;;;;;;;;;;;15.70;83.51;101050.34;5033520;28;1295;-77
2023/07/21 06:40:17;;;;;;;;;;;;;;;15.79;83.62;101043.41;5051225;28;1228;-76
2023/07/21 06:42:44;;;;;;;;;;;;;;;15.82;81.52;101049.13;5052559;28;1252;-76
2023/07/21 06:45:10;;;;;;;;;;;;;;;15.85;82.31;101038.38;5031315;28;1200;-76
2023/07/21 06:47:35;;;;;;;;;;;;;;;15.92;82.45;101041.19;5047852;28;1344;-77
2023/07/21 06:50:01;;;;;;;;;;;;;;;16.02;82.47;101043.69;5050254;28;1161;-77
2023/07/21 06:52:26;;;;;;;;;;;;;;;16.12;82.13;101033.94;5050760;28;1890;-77
2023/07/21 06:54:52;;;;;;;;;;;;;;;16.24;82.06;101037.91;5050099;28;1434;-77
2023/07/21 06:57:18;;;;;;;;;;;;;;;16.30;81.71;101036.47;5053271;28;1445;-76
2023/07/21 06:59:43;;;;;;;;;;;;;;;16.37;81.76;101038.28;5043065;28;1374;-77
2023/07/21 07:02:09;;;;;;;;;;;;;;;16.44;81.56;101036.69;5042233;28;1094;-77
2023/07/21 07:04:34;;;;;;;;;;;;;;;16.51;80.99;101039.47;5054065;28;1185;-77
2023/07/21 07:06:59;;;;;;;;;;;;;;;16.60;80.90;101040.34;5049264;28;1040;-76
2023/07/21 07:09:25;;;;;;;;;;;;;;;16.65;80.84;101035.44;5051231;28;997;-77
2023/07/21 07:11:50;;;;;;;;;;;;;;;16.71;81.19;101034.84;5049329;28;1955;-77
2023/07/21 07:14:15;;;;;;;;;;;;;;;16.75;81.08;101038.78;5046574;28;1202;-77
2023/07/21 07:16:41;;;;;;;;;;;;;;;16.82;81.04;101031.91;5044245;28;1244;-77
2023/07/21 07:19:06;;;;;;;;;;;;;;;16.83;80.77;101033.56;5046435;28;1181;-76
2023/07/21 07:21:32;;;;;;;;;;;;;;;16.87;80.79;101040.13;5049553;28;1208;-77
2023/07/21 07:23:57;;;;;;;;;;;;;;;16.95;80.81;101031.44;5033583;28;1401;-77
2023/07/21 07:26:22;;;;;;;;;;;;;;;17.02;80.31;101037.66;5046285;28;1181;-76
2023/07/21 07:28:47;;;;;;;;;;;;;;;17.09;80.14;101037.84;5042039;28;1499;-76
2023/07/21 07:31:12;;;;;;;;;;;;;;;17.12;79.66;101040.16;5040041;28;1949;-77
2023/07/21 07:33:38;;;;;;;;;;;;;;;17.20;79.70;101045.38;5041497;28;1146;-77
2023/07/21 07:36:04;;;;;;;;;;;;;;;17.26;79.99;101039.50;5041670;28;1323;-77
2023/07/21 07:38:30;;;;;;;;;;;;;;;17.34;80.02;101031.63;5049489;28;1236;-77
2023/07/21 07:41:08;;;;;;;;;;;;;;;17.43;79.76;101029.81;5021246;28;1229;-77
2023/07/21 07:43:34;;;;;;;;;;;;;;;17.49;79.51;101035.25;5053635;28;1059;-77
2023/07/21 07:46:00;;;;;;;;;;;;;;;17.59;78.91;101034.25;5043645;28;1051;-77
2023/07/21 07:48:25;;;;;;;;;;;;;;;17.65;78.30;101044.06;5043091;28;1282;-77
2023/07/21 07:50:51;;;;;;;;;;;;;;;17.71;77.63;101038.16;5049375;28;1902;-77
2023/07/21 07:53:17;;;;;;;;;;;;;;;17.76;77.91;101043.75;5049224;28;927;-77
2023/07/21 07:55:42;;;;;;;;;;;;;;;17.82;77.85;101040.47;5045263;28;1100;-77
2023/07/21 07:58:08;;;;;;;;;;;;;;;17.92;77.75;101041.09;5040166;28;1178;-77
2023/07/21 08:00:38;;;;;;;;;;;;;;;17.94;77.79;101039.13;5030409;28;1369;-77
2023/07/21 08:03:04;;;;;;;;;;;;;;;18.03;77.55;101038.13;5044216;28;1114;-77
2023/07/21 08:05:29;;;;;;;;;;;;;;;18.10;77.62;101038.25;5051539;28;1037;-77
2023/07/21 08:07:55;;;;;;;;;;;;;;;18.18;76.90;101045.28;5046835;28;1204;-77
2023/07/21 08:10:20;;;;;;;;;;;;;;;18.22;76.85;101043.97;5046643;28;1498;-76
2023/07/21 08:12:45;;;;;;;;;;;;;;;18.26;76.72;101037.41;5045082;28;1906;-77
2023/07/21 08:15:11;;;;;;;;;;;;;;;18.29;76.58;101037.88;5046012;28;1279;-77
2023/07/21 08:17:37;;;;;;;;;;;;;;;18.29;75.62;101043.13;5046456;28;1237;-77
2023/07/21 08:20:02;;;;;;;;;;;;;;;18.30;75.41;101043.94;5043958;28;1022;-76
2023/07/21 08:22:27;;;;;;;;;;;;;;;18.31;74.29;101035.09;5045113;28;1205;-77
2023/07/21 08:24:53;;;;;;;;;;;;;;;18.36;73.54;101032.75;5047652;28;1229;-76
2023/07/21 08:27:20;;;;;;;;;;;;;;;18.40;73.56;101034.03;5044513;28;1569;-76
2023/07/21 08:29:45;;;;;;;;;;;;;;;18.35;74.16;101033.75;5033229;28;1220;-77
2023/07/21 08:32:11;;;;;;;;;;;;;;;18.49;74.00;101043.53;5045709;28;1890;-77
2023/07/21 08:34:36;;;;;;;;;;;;;;;18.65;73.70;101052.34;5050084;28;1141;-77
2023/07/21 08:37:01;;;;;;;;;;;;;;;18.75;72.82;101050.31;5043146;28;1283;-77
2023/07/21 08:39:27;;;;;;;;;;;;;;;18.80;72.18;101045.34;5043127;28;1204;-76
2023/07/21 08:41:53;;;;;;;;;;;;;;;18.78;70.58;101052.59;5027709;28;1313;-77
2023/07/21 08:44:19;;;;;;;;;;;;;;;18.69;71.45;101043.13;5025211;28;1263;-76
2023/07/21 08:46:44;;;;;;;;;;;;;;;18.74;71.35;101046.06;5042753;28;1420;-77
2023/07/21 08:49:10;;;;;;;;;;;;;;;18.87;71.02;101046.31;5046673;28;1575;-77
2023/07/21 08:51:36;;;;;;;;;;;;;;;19.03;70.22;101051.44;5048930;28;1902;-77
2023/07/21 08:54:01;;;;;;;;;;;;;;;19.09;70.15;101050.75;5043732;28;1225;-77
2023/07/21 08:56:27;;;;;;;;;;;;;;;19.13;68.69;101045.16;5045651;28;1590;-76
2023/07/21 08:58:52;;;;;;;;;;;;;;;19.22;68.20;101049.38;5045115;28;1316;-77
2023/07/21 09:01:17;;;;;;;;;;;;;;;19.34;68.79;101043.50;5033231;28;1598;-76
2023/07/21 09:03:46;;;;;;;;;;;;;;;19.51;67.80;101046.81;5046220;28;1210;-77
2023/07/21 09:06:14;;;;;;;;;;;;;;;19.51;65.45;101052.06;5048737;28;1104;-76
2023/07/21 09:08:40;;;;;;;;;;;;;;;19.63;67.67;101047.22;5041280;28;1243;-76
2023/07/21 09:11:05;;;;;;;;;;;;;;;19.70;66.40;101052.59;5032872;28;1898;-77
2023/07/21 09:13:31;;;;;;;;;;;;;;;19.77;62.94;101045.59;5050176;28;1353;-76
2023/07/21 09:15:56;;;;;;;;;;;;;;;19.66;60.37;101035.53;5049393;28;1112;-76
2023/07/21 09:18:29;;;;;;;;;;;;;;;19.59;62.03;101038.88;5047249;28;1178;-76
2023/07/21 09:20:55;;;;;;;;;;;;;;;19.67;62.26;101038.00;5040630;28;1196;-76
2023/07/21 09:23:20;;;;;;;;;;;;;;;19.70;63.25;101042.06;5041473;28;1241;-78
2023/07/21 09:25:49;;;;;;;;;;;;;;;19.87;63.14;101033.81;5041338;28;1182;-77
2023/07/21 09:28:15;;;;;;;;;;;;;;;20.02;63.42;101041.75;5024642;28;1325;-76
2023/07/21 09:30:51;;;;;;;;;;;;;;;20.08;62.41;101035.75;5044786;28;1071;-76
2023/07/21 09:33:20;;;;;;;;;;;;;;;19.98;62.08;101040.47;5034883;28;1894;-76
2023/07/21 09:35:45;;;;;;;;;;;;;;;19.99;62.78;101036.81;5044359;28;1272;-76
2023/07/21 09:38:11;;;;;;;;;;;;;;;20.01;62.35;101034.81;5043356;28;1320;-77
2023/07/21 09:40:40;;;;;;;;;;;;;;;20.05;62.13;101028.19;5026473;28;1524;-76
2023/07/21 09:43:05;;;;;;;;;;;;;;;20.11;62.32;101035.34;5039826;28;997;-76
2023/07/21 09:45:30;;;;;;;;;;;;;;;20.22;60.23;101041.16;5045947;28;1125;-76
2023/07/21 09:47:56;;;;;;;;;;;;;;;20.27;61.14;101036.19;5038060;28;1213;-76
2023/07/21 09:50:21;;;;;;;;;;;;;;;20.24;61.36;101028.63;5027929;28;1342;-76
2023/07/21 09:52:47;;;;;;;;;;;;;;;20.28;61.40;101029.91;5045727;28;1918;-76
2023/07/21 09:55:15;;;;;;;;;;;;;;;20.26;61.15;101027.47;5029277;28;1235;-77
2023/07/21 09:57:42;;;;;;;;;;;;;;;20.34;60.85;101034.44;5045164;28;1203;-76
2023/07/21 10:00:13;;;;;;;;;;;;;;;20.36;59.91;101027.19;5037106;28;1398;-76
2023/07/21 10:02:39;;;;;;;;;;;;;;;20.44;60.19;101024.44;5050195;28;1059;-76
2023/07/21 10:05:05;;;;;;;;;;;;;;;20.56;60.49;101022.97;5042845;28;1201;-76
2023/07/21 10:07:32;;;;;;;;;;;;;;;20.74;59.57;101021.75;5052809;28;1188;-76
2023/07/21 10:09:57;;;;;;;;;;;;;;;20.81;58.93;101020.78;5049347;28;1227;-76
2023/07/21 10:12:22;;;;;;;;;;;;;;;20.78;57.03;101031.72;5057023;28;2035;-76
2023/07/21 10:14:51;;;;;;;;;;;;;;;20.74;57.38;101024.38;5046593;28;1385;-76
2023/07/21 10:17:23;;;;;;;;;;;;;;;20.66;56.46;101020.88;5049335;28;1352;-76
2023/07/21 10:20:04;;;;;;;;;;;;;;;20.65;56.76;101021.88;5048470;28;1262;-76
2023/07/21 10:22:30;;;;;;;;;;;;;;;20.74;56.39;101024.38;5046104;28;1075;-77
2023/07/21 10:24:56;;;;;;;;;;;;;;;20.83;55.63;101023.28;5047922;28;1256;-76
2023/07/21 10:27:22;;;;;;;;;;;;;;;20.92;54.87;101016.84;5035297;28;1298;-77
2023/07/21 10:30:10;;;;;;;;;;;;;;;21.00;54.60;101019.38;5050410;28;1126;-77
2023/07/21 10:32:40;;;;;;;;;;;;;;;21.09;53.12;101018.22;5037814;28;1959;-77
2023/07/21 10:35:05;;;;;;;;;;;;;;;21.15;53.77;101006.91;5029514;28;1307;-77
2023/07/21 10:37:31;;;;;;;;;;;;;;;21.27;53.45;101019.59;5040184;28;1217;-77
2023/07/21 10:39:59;;;;;;;;;;;;;;;21.34;53.58;101025.78;5049280;28;1205;-77
2023/07/21 10:42:24;;;;;;;;;;;;;;;21.42;52.93;101017.72;5050524;28;1266;-77
2023/07/21 10:44:49;;;;;;;;;;;;;;;21.53;52.04;101025.13;5035844;28;1314;-77
2023/07/21 10:47:19;;;;;;;;;;;;;;;21.65;52.21;101013.00;5037256;28;1255;-77
2023/07/21 10:49:45;;;;;;;;;;;;;;;21.59;51.85;101008.50;5047678;28;1205;-77
2023/07/21 10:52:10;;;;;;;;;;;;;;;21.59;49.83;101013.78;5048405;28;1957;-77
2023/07/21 10:54:36;;;;;;;;;;;;;;;21.68;51.73;101012.66;5045999;28;1202;-77
2023/07/21 10:57:02;;;;;;;;;;;;;;;21.78;51.69;101006.19;5042909;28;1139;-77
2023/07/21 10:59:29;;;;;;;;;;;;;;;21.86;50.67;101016.59;5045994;28;1196;-77
2023/07/21 11:01:54;;;;;;;;;;;;;;;21.88;49.95;101004.00;5026541;28;1168;-77
2023/07/21 11:04:21;;;;;;;;;;;;;;;21.88;50.30;101001.38;5055578;28;1206;-77
2023/07/21 11:06:47;;;;;;;;;;;;;;;22.00;50.80;101010.38;5050006;28;1257;-77
2023/07/21 11:09:13;;;;;;;;;;;;;;;22.17;50.35;101003.78;5053847;28;1205;-76
2023/07/21 11:11:39;;;;;;;;;;;;;;;22.29;51.06;100997.94;5036760;28;1906;-77
2023/07/21 11:14:07;;;;;;;;;;;;;;;22.42;50.82;100997.97;5026351;28;1537;-77
2023/07/21 11:16:33;;;;;;;;;;;;;;;22.45;50.36;100992.28;5047879;28;1221;-77
2023/07/21 11:18:58;;;;;;;;;;;;;;;22.40;48.32;100989.44;5045897;28;1244;-77
2023/07/21 11:21:23;;;;;;;;;;;;;;;22.24;50.10;100996.69;5045817;28;1209;-76
2023/07/21 11:23:55;;;;;;;;;;;;;;;22.17;49.73;100993.22;5048145;28;1585;-77
2023/07/21 11:26:22;;;;;;;;;;;;;;;22.03;50.47;101003.91;5045127;28;1210;-76
2023/07/21 11:28:47;;;;;;;;;;;;;;;22.01;50.37;101002.25;5047252;28;1244;-77
2023/07/21 11:31:13;;;;;;;;;;;;;;;22.10;50.69;101002.94;5047693;28;1898;-78
2023/07/21 11:33:42;;;;;;;;;;;;;;;22.07;50.72;101005.94;5047092;28;1125;-77
2023/07/21 11:36:27;;;;;;;;;;;;;;;21.96;50.01;101009.13;5043987;28;1386;-77
2023/07/21 11:39:04;;;;;;;;;;;;;;;21.87;50.61;101000.56;5049327;28;1106;-76
2023/07/21 11:41:32;;;;;;;;;;;;;;;21.92;50.45;101010.53;5025961;28;1130;-77
2023/07/21 11:43:58;;;;;;;;;;;;;;;21.96;51.16;101014.41;5052546;28;1312;-77
2023/07/21 11:46:23;;;;;;;;;;;;;;;22.10;51.25;101010.88;5042640;28;1166;-77
2023/07/21 11:48:50;;;;;;;;;;;;;;;22.25;50.26;101003.63;5049027;28;1572;-76
2023/07/21 11:51:15;;;;;;;;;;;;;;;22.35;51.03;101013.00;5044155;28;1910;-77
2023/07/21 11:53:48;;;;;;;;;;;;;;;22.57;49.53;101006.56;5048503;28;1368;-76
2023/07/21 11:56:14;;;;;;;;;;;;;;;22.64;49.42;101006.56;5040333;28;1046;-77
2023/07/21 11:58:40;;;;;;;;;;;;;;;22.45;49.79;101013.44;5044790;28;1026;-76
2023/07/21 12:01:07;;;;;;;;;;;;;;;22.12;51.33;101011.47;5040461;28;1099;-77
2023/07/21 12:03:36;;;;;;;;;;;;;;;21.87;51.30;101015.59;5051717;28;989;-77
2023/07/21 12:06:16;;;;;;;;;;;;;;;21.56;52.43;101018.63;5052135;28;1241;-77
2023/07/21 12:08:42;;;;;;;;;;;;;;;21.34;52.90;101015.25;5045279;28;1158;-77
2023/07/21 12:11:07;;;;;;;;;;;;;;;21.21;53.29;101014.06;5047346;28;1960;-78
2023/07/21 12:13:33;;;;;;;;;;;;;;;21.07;53.44;101022.88;5051305;28;1236;-77
2023/07/21 12:15:59;;;;;;;;;;;;;;;20.98;54.32;101016.09;5043231;28;1221;-77
2023/07/21 12:18:24;;;;;;;;;;;;;;;21.07;54.62;101009.69;5035298;28;1208;-76
2023/07/21 12:20:50;;;;;;;;;;;;;;;21.31;54.50;101012.97;5043768;28;1209;-76
2023/07/21 12:23:15;;;;;;;;;;;;;;;21.44;54.31;101005.97;5044868;28;1147;-77
2023/07/21 12:25:40;;;;;;;;;;;;;;;21.43;54.11;101016.72;5050489;28;1221;-76
2023/07/21 12:28:05;;;;;;;;;;;;;;;21.36;54.34;101018.50;5027749;28;1193;-77
2023/07/21 12:30:30;;;;;;;;;;;;;;;21.31;54.59;101015.59;5043529;28;1245;-77
2023/07/21 12:32:57;;;;;;;;;;;;;;;21.28;54.86;101021.25;5041593;28;1989;-76
2023/07/21 12:35:22;;;;;;;;;;;;;;;21.18;55.06;101022.38;5046024;28;1155;-76
2023/07/21 12:37:47;;;;;;;;;;;;;;;21.07;55.04;101025.53;5024667;28;1445;-76
2023/07/21 12:40:12;;;;;;;;;;;;;;;20.94;55.61;101036.78;5045052;28;1400;-77
2023/07/21 12:42:38;;;;;;;;;;;;;;;20.79;55.51;101043.09;5017065;28;1698;-76